sensor_id;sensor_type;location;lat;lon;timestamp;temperature;humidity
5683;DHT22;2864;49.220;8.654;2022-10-31T00:01:33;10.40;99.90
5683;DHT22;2864;49.220;8.654;2022-10-31T00:03:59;10.40;99.90
5683;DHT22;2864;49.220;8.654;2022-10-31T00:06:25;10.40;99.90
5683;DHT22;2864;49.220;8.654;2022-10-31T00:08:59;10.40;99.90
5683;DHT22;2864;49.220;8.654;2022-10-31T00:11:25;10.40;99.90
5683;DHT22;2864;49.220;8.654;2022-10-31T00:13:51;10.30;99.90
5683;DHT22;2864;49.220;8.654;2022-10-31T00:16:21;10.30;99.90
5683;DHT22;2864;49.220;8.654;2022-10-31T00:18:51;10.30;99.90
5683;DHT22;2864;49.220;8.654;2022-10-31T00:21:17;10.30;99.90
5683;DHT22;2864;49.220;8.654;2022-10-31T00:23:42;10.20;99.90
5683;DHT22;2864;49.220;8.654;2022-10-31T00:26:08;10.20;99.90
5683;DHT22;2864;49.220;8.654;2022-10-31T00:28:34;10.20;99.90
5683;DHT22;2864;49.220;8.654;2022-10-31T00:31:04;10.20;99.90
5683;DHT22;2864;49.220;8.654;2022-10-31T00:33:30;10.20;99.90
5683;DHT22;2864;49.220;8.654;2022-10-31T00:35:58;10.20;99.90
5683;DHT22;2864;49.220;8.654;2022-10-31T00:38:23;10.20;99.90
5683;DHT22;2864;49.220;8.654;2022-10-31T00:40:49;10.20;99.90
5683;DHT22;2864;49.220;8.654;2022-10-31T00:43:14;10.20;99.90
5683;DHT22;2864;49.220;8.654;2022-10-31T00:45:41;10.30;99.90
5683;DHT22;2864;49.220;8.654;2022-10-31T00:48:07;10.30;99.90
5683;DHT22;2864;49.220;8.654;2022-10-31T00:50:33;10.30;99.90
5683;DHT22;2864;49.220;8.654;2022-10-31T00:52:58;10.30;99.90
5683;DHT22;2864;49.220;8.654;2022-10-31T00:55:24;10.30;99.90
5683;DHT22;2864;49.220;8.654;2022-10-31T00:57:49;10.30;99.90
5683;DHT22;2864;49.220;8.654;2022-10-31T01:00:15;10.30;99.90
5683;DHT22;2864;49.220;8.654;2022-10-31T01:02:41;10.40;99.90
5683;DHT22;2864;49.220;8.654;2022-10-31T01:05:07;10.30;99.90
5683;DHT22;2864;49.220;8.654;2022-10-31T01:07:36;10.30;99.90
5683;DHT22;2864;49.220;8.654;2022-10-31T01:10:01;10.20;99.90
5683;DHT22;2864;49.220;8.654;2022-10-31T01:12:27;10.10;99.90
5683;DHT22;2864;49.220;8.654;2022-10-31T01:14:52;10.00;99.90
5683;DHT22;2864;49.220;8.654;2022-10-31T01:17:18;10.00;99.90
5683;DHT22;2864;49.220;8.654;2022-10-31T01:19:44;9.90;99.90
5683;DHT22;2864;49.220;8.654;2022-10-31T01:22:10;9.90;99.90
5683;DHT22;2864;49.220;8.654;2022-10-31T01:24:35;9.90;99.90
5683;DHT22;2864;49.220;8.654;2022-10-31T01:27:01;9.90;99.90
5683;DHT22;2864;49.220;8.654;2022-10-31T01:29:27;9.90;99.90
5683;DHT22;2864;49.220;8.654;2022-10-31T01:31:52;10.00;99.90
5683;DHT22;2864;49.220;8.654;2022-10-31T01:34:18;10.00;99.90
5683;DHT22;2864;49.220;8.654;2022-10-31T01:36:45;9.90;99.90
5683;DHT22;2864;49.220;8.654;2022-10-31T01:39:14;9.90;99.90
5683;DHT22;2864;49.220;8.654;2022-10-31T01:41:42;9.90;99.90
5683;DHT22;2864;49.220;8.654;2022-10-31T01:52:07;9.80;99.90
5683;DHT22;2864;49.220;8.654;2022-10-31T01:54:40;9.80;99.90
5683;DHT22;2864;49.220;8.654;2022-10-31T01:57:09;9.80;99.90
5683;DHT22;2864;49.220;8.654;2022-10-31T01:59:40;9.80;99.90
5683;DHT22;2864;49.220;8.654;2022-10-31T02:02:07;9.80;99.90
5683;DHT22;2864;49.220;8.654;2022-10-31T02:04:33;9.80;99.90
5683;DHT22;2864;49.220;8.654;2022-10-31T02:07:10;9.70;99.90
5683;DHT22;2864;49.220;8.654;2022-10-31T02:09:37;9.70;99.90
5683;DHT22;2864;49.220;8.654;2022-10-31T02:12:03;9.70;99.90
5683;DHT22;2864;49.220;8.654;2022-10-31T02:14:30;9.60;99.90
5683;DHT22;2864;49.220;8.654;2022-10-31T02:20:20;9.60;99.90
5683;DHT22;2864;49.220;8.654;2022-10-31T02:22:38;9.60;99.90
5683;DHT22;2864;49.220;8.654;2022-10-31T02:25:41;9.60;99.90
5683;DHT22;2864;49.220;8.654;2022-10-31T02:33:36;9.50;99.90
5683;DHT22;2864;49.220;8.654;2022-10-31T02:41:39;9.50;99.90
5683;DHT22;2864;49.220;8.654;2022-10-31T02:47:32;9.40;99.90
5683;DHT22;2864;49.220;8.654;2022-10-31T02:50:01;9.40;99.90
5683;DHT22;2864;49.220;8.654;2022-10-31T02:52:29;9.40;99.90
5683;DHT22;2864;49.220;8.654;2022-10-31T02:54:55;9.40;99.90
5683;DHT22;2864;49.220;8.654;2022-10-31T02:57:32;9.40;99.90
5683;DHT22;2864;49.220;8.654;2022-10-31T03:00:03;9.50;99.90
5683;DHT22;2864;49.220;8.654;2022-10-31T03:05:31;9.70;99.90
5683;DHT22;2864;49.220;8.654;2022-10-31T03:10:40;9.90;99.90
5683;DHT22;2864;49.220;8.654;2022-10-31T03:15:58;10.10;99.90
5683;DHT22;2864;49.220;8.654;2022-10-31T03:18:32;10.10;99.90
5683;DHT22;2864;49.220;8.654;2022-10-31T03:21:04;10.10;99.90
5683;DHT22;2864;49.220;8.654;2022-10-31T03:23:32;10.10;99.90
5683;DHT22;2864;49.220;8.654;2022-10-31T03:26:00;10.10;99.90
5683;DHT22;2864;49.220;8.654;2022-10-31T03:28:32;10.20;99.90
5683;DHT22;2864;49.220;8.654;2022-10-31T03:30:59;10.20;99.90
5683;DHT22;2864;49.220;8.654;2022-10-31T03:33:29;10.20;99.90
5683;DHT22;2864;49.220;8.654;2022-10-31T03:35:58;10.30;99.90
5683;DHT22;2864;49.220;8.654;2022-10-31T03:38:25;10.20;99.90
5683;DHT22;2864;49.220;8.654;2022-10-31T03:40:54;10.20;99.90
5683;DHT22;2864;49.220;8.654;2022-10-31T03:43:24;10.20;99.90
5683;DHT22;2864;49.220;8.654;2022-10-31T03:45:52;10.20;99.90
5683;DHT22;2864;49.220;8.654;2022-10-31T03:48:19;10.20;99.90
5683;DHT22;2864;49.220;8.654;2022-10-31T03:51:55;10.20;99.90
5683;DHT22;2864;49.220;8.654;2022-10-31T03:56:33;10.20;99.90
5683;DHT22;2864;49.220;8.654;2022-10-31T03:59:05;10.20;99.90
5683;DHT22;2864;49.220;8.654;2022-10-31T04:01:36;10.10;99.90
5683;DHT22;2864;49.220;8.654;2022-10-31T04:04:04;10.00;99.90
5683;DHT22;2864;49.220;8.654;2022-10-31T04:06:30;10.00;99.90
5683;DHT22;2864;49.220;8.654;2022-10-31T04:09:03;9.90;99.90
5683;DHT22;2864;49.220;8.654;2022-10-31T04:11:32;9.90;99.90
5683;DHT22;2864;49.220;8.654;2022-10-31T04:13:59;9.90;99.90
5683;DHT22;2864;49.220;8.654;2022-10-31T04:18:53;9.90;99.90
5683;DHT22;2864;49.220;8.654;2022-10-31T04:21:18;10.00;99.90
5683;DHT22;2864;49.220;8.654;2022-10-31T04:23:44;10.00;99.90
5683;DHT22;2864;49.220;8.654;2022-10-31T04:26:13;10.00;99.90
5683;DHT22;2864;49.220;8.654;2022-10-31T04:28:38;10.00;99.90
5683;DHT22;2864;49.220;8.654;2022-10-31T04:35:56;9.90;99.90
5683;DHT22;2864;49.220;8.654;2022-10-31T04:38:21;9.90;99.90
5683;DHT22;2864;49.220;8.654;2022-10-31T04:40:47;9.80;99.90
5683;DHT22;2864;49.220;8.654;2022-10-31T04:43:12;9.80;99.90
5683;DHT22;2864;49.220;8.654;2022-10-31T04:45:38;9.80;99.90
5683;DHT22;2864;49.220;8.654;2022-10-31T04:48:04;9.80;99.90
5683;DHT22;2864;49.220;8.654;2022-10-31T04:50:29;9.90;99.90
5683;DHT22;2864;49.220;8.654;2022-10-31T04:52:55;9.80;99.90
5683;DHT22;2864;49.220;8.654;2022-10-31T04:55:21;9.80;99.90
5683;DHT22;2864;49.220;8.654;2022-10-31T04:57:48;9.70;99.90
5683;DHT22;2864;49.220;8.654;2022-10-31T05:00:16;9.70;99.90
5683;DHT22;2864;49.220;8.654;2022-10-31T05:02:45;9.70;99.90
5683;DHT22;2864;49.220;8.654;2022-10-31T05:05:12;9.70;99.90
5683;DHT22;2864;49.220;8.654;2022-10-31T05:07:40;9.80;99.90
5683;DHT22;2864;49.220;8.654;2022-10-31T05:12:32;9.70;99.90
5683;DHT22;2864;49.220;8.654;2022-10-31T05:14:57;9.70;99.90
5683;DHT22;2864;49.220;8.654;2022-10-31T05:17:23;9.60;99.90
5683;DHT22;2864;49.220;8.654;2022-10-31T05:19:48;9.70;99.90
5683;DHT22;2864;49.220;8.654;2022-10-31T05:24:40;9.60;99.90
5683;DHT22;2864;49.220;8.654;2022-10-31T05:31:58;9.40;99.90
5683;DHT22;2864;49.220;8.654;2022-10-31T05:34:24;9.30;99.90
5683;DHT22;2864;49.220;8.654;2022-10-31T05:44:08;9.20;99.90
5683;DHT22;2864;49.220;8.654;2022-10-31T05:46:33;9.20;99.90
5683;DHT22;2864;49.220;8.654;2022-10-31T05:48:59;9.20;99.90
5683;DHT22;2864;49.220;8.654;2022-10-31T05:51:24;9.10;99.90
5683;DHT22;2864;49.220;8.654;2022-10-31T05:53:50;9.10;99.90
5683;DHT22;2864;49.220;8.654;2022-10-31T05:56:15;9.00;99.90
5683;DHT22;2864;49.220;8.654;2022-10-31T05:58:41;9.00;99.90
5683;DHT22;2864;49.220;8.654;2022-10-31T06:03:32;9.00;99.90
5683;DHT22;2864;49.220;8.654;2022-10-31T06:05:58;9.00;99.90
5683;DHT22;2864;49.220;8.654;2022-10-31T06:08:23;9.10;99.90
5683;DHT22;2864;49.220;8.654;2022-10-31T06:15:41;9.10;99.90
5683;DHT22;2864;49.220;8.654;2022-10-31T06:18:08;9.10;99.90
5683;DHT22;2864;49.220;8.654;2022-10-31T06:20:34;9.10;99.90
5683;DHT22;2864;49.220;8.654;2022-10-31T06:22:59;9.10;99.90
5683;DHT22;2864;49.220;8.654;2022-10-31T06:27:51;9.20;99.90
5683;DHT22;2864;49.220;8.654;2022-10-31T06:32:42;9.30;99.90
5683;DHT22;2864;49.220;8.654;2022-10-31T06:35:09;9.40;99.90
5683;DHT22;2864;49.220;8.654;2022-10-31T06:37:34;9.40;99.90
5683;DHT22;2864;49.220;8.654;2022-10-31T06:57:01;10.00;99.90
5683;DHT22;2864;49.220;8.654;2022-10-31T07:01:53;10.20;99.90
5683;DHT22;2864;49.220;8.654;2022-10-31T07:09:10;10.40;99.90
5683;DHT22;2864;49.220;8.654;2022-10-31T07:11:36;10.50;99.90
5683;DHT22;2864;49.220;8.654;2022-10-31T07:18:53;10.70;99.90
5683;DHT22;2864;49.220;8.654;2022-10-31T07:23:48;10.90;99.90
5683;DHT22;2864;49.220;8.654;2022-10-31T07:28:40;11.00;99.90
5683;DHT22;2864;49.220;8.654;2022-10-31T07:36:01;11.20;99.90
5683;DHT22;2864;49.220;8.654;2022-10-31T07:38:27;11.20;99.90
5683;DHT22;2864;49.220;8.654;2022-10-31T07:40:52;11.30;99.90
5683;DHT22;2864;49.220;8.654;2022-10-31T07:43:18;11.40;99.90
5683;DHT22;2864;49.220;8.654;2022-10-31T07:53:07;11.60;99.90
5683;DHT22;2864;49.220;8.654;2022-10-31T07:55:34;11.70;99.90
5683;DHT22;2864;49.220;8.654;2022-10-31T07:58:01;11.80;99.90
5683;DHT22;2864;49.220;8.654;2022-10-31T08:00:28;13.10;99.90
5683;DHT22;2864;49.220;8.654;2022-10-31T08:03:04;12.00;99.90
5683;DHT22;2864;49.220;8.654;2022-10-31T08:05:31;12.10;99.90
5683;DHT22;2864;49.220;8.654;2022-10-31T08:07:57;12.10;99.90
5683;DHT22;2864;49.220;8.654;2022-10-31T08:10:24;14.50;99.90
5683;DHT22;2864;49.220;8.654;2022-10-31T08:12:57;13.90;99.90
5683;DHT22;2864;49.220;8.654;2022-10-31T08:15:23;12.30;99.90
5683;DHT22;2864;49.220;8.654;2022-10-31T08:17:49;13.30;99.90
5683;DHT22;2864;49.220;8.654;2022-10-31T08:20:15;12.50;99.90
5683;DHT22;2864;49.220;8.654;2022-10-31T08:22:40;13.60;99.90
5683;DHT22;2864;49.220;8.654;2022-10-31T08:25:06;12.60;99.90
5683;DHT22;2864;49.220;8.654;2022-10-31T08:27:32;12.70;99.90
5683;DHT22;2864;49.220;8.654;2022-10-31T08:29:57;14.00;99.90
5683;DHT22;2864;49.220;8.654;2022-10-31T08:32:24;13.00;99.90
5683;DHT22;2864;49.220;8.654;2022-10-31T08:34:49;13.00;99.90
5683;DHT22;2864;49.220;8.654;2022-10-31T08:37:15;14.40;99.90
5683;DHT22;2864;49.220;8.654;2022-10-31T08:39:47;13.10;99.90
5683;DHT22;2864;49.220;8.654;2022-10-31T08:42:13;13.10;99.90
5683;DHT22;2864;49.220;8.654;2022-10-31T08:44:39;13.20;99.90
5683;DHT22;2864;49.220;8.654;2022-10-31T08:47:04;13.40;99.90
5683;DHT22;2864;49.220;8.654;2022-10-31T08:49:30;14.50;99.90
5683;DHT22;2864;49.220;8.654;2022-10-31T08:51:56;13.60;99.90
5683;DHT22;2864;49.220;8.654;2022-10-31T08:54:21;13.60;99.90
5683;DHT22;2864;49.220;8.654;2022-10-31T08:56:47;13.80;99.90
5683;DHT22;2864;49.220;8.654;2022-10-31T08:59:12;14.80;99.90
5683;DHT22;2864;49.220;8.654;2022-10-31T09:01:38;14.00;99.90
5683;DHT22;2864;49.220;8.654;2022-10-31T09:04:03;14.10;99.90
5683;DHT22;2864;49.220;8.654;2022-10-31T09:06:29;14.20;99.90
5683;DHT22;2864;49.220;8.654;2022-10-31T09:08:54;15.10;99.90
5683;DHT22;2864;49.220;8.654;2022-10-31T09:11:20;14.70;99.90
5683;DHT22;2864;49.220;8.654;2022-10-31T09:13:46;14.60;99.90
5683;DHT22;2864;49.220;8.654;2022-10-31T09:16:11;14.80;99.90
5683;DHT22;2864;49.220;8.654;2022-10-31T09:18:37;15.90;99.90
5683;DHT22;2864;49.220;8.654;2022-10-31T09:21:02;15.70;99.90
5683;DHT22;2864;49.220;8.654;2022-10-31T09:23:28;15.20;99.90
5683;DHT22;2864;49.220;8.654;2022-10-31T09:25:54;15.20;99.90
5683;DHT22;2864;49.220;8.654;2022-10-31T09:28:22;15.40;99.90
5683;DHT22;2864;49.220;8.654;2022-10-31T09:30:50;15.50;99.90
5683;DHT22;2864;49.220;8.654;2022-10-31T09:33:16;17.30;99.90
5683;DHT22;2864;49.220;8.654;2022-10-31T09:35:42;15.50;99.90
5683;DHT22;2864;49.220;8.654;2022-10-31T09:38:13;15.60;99.90
5683;DHT22;2864;49.220;8.654;2022-10-31T09:40:43;15.70;99.90
5683;DHT22;2864;49.220;8.654;2022-10-31T09:43:25;15.70;99.90
5683;DHT22;2864;49.220;8.654;2022-10-31T09:46:21;15.90;99.90
5683;DHT22;2864;49.220;8.654;2022-10-31T09:49:28;16.00;99.90
5683;DHT22;2864;49.220;8.654;2022-10-31T09:51:50;16.20;99.90
5683;DHT22;2864;49.220;8.654;2022-10-31T09:56:45;16.20;99.90
5683;DHT22;2864;49.220;8.654;2022-10-31T09:59:26;18.40;99.90
5683;DHT22;2864;49.220;8.654;2022-10-31T10:04:56;16.50;99.90
5683;DHT22;2864;49.220;8.654;2022-10-31T10:10:00;17.90;99.90
5683;DHT22;2864;49.220;8.654;2022-10-31T10:15:39;16.70;99.90
5683;DHT22;2864;49.220;8.654;2022-10-31T10:23:29;16.80;99.90
5683;DHT22;2864;49.220;8.654;2022-10-31T10:26:12;16.90;99.90
5683;DHT22;2864;49.220;8.654;2022-10-31T10:28:43;17.00;99.90
5683;DHT22;2864;49.220;8.654;2022-10-31T10:31:26;17.00;99.90
5683;DHT22;2864;49.220;8.654;2022-10-31T10:33:58;17.10;99.90
5683;DHT22;2864;49.220;8.654;2022-10-31T10:36:27;17.20;99.90
5683;DHT22;2864;49.220;8.654;2022-10-31T10:38:59;20.00;99.90
5683;DHT22;2864;49.220;8.654;2022-10-31T10:41:30;18.00;99.90
5683;DHT22;2864;49.220;8.654;2022-10-31T10:43:56;17.50;99.90
5683;DHT22;2864;49.220;8.654;2022-10-31T10:46:57;17.50;99.90
5683;DHT22;2864;49.220;8.654;2022-10-31T10:49:52;17.60;99.90
5683;DHT22;2864;49.220;8.654;2022-10-31T10:52:23;17.70;99.90
5683;DHT22;2864;49.220;8.654;2022-10-31T10:58:03;17.70;99.90
5683;DHT22;2864;49.220;8.654;2022-10-31T11:00:42;17.90;99.90
5683;DHT22;2864;49.220;8.654;2022-10-31T11:03:12;17.90;99.90
5683;DHT22;2864;49.220;8.654;2022-10-31T11:05:46;18.10;99.90
5683;DHT22;2864;49.220;8.654;2022-10-31T11:08:31;18.20;99.90
5683;DHT22;2864;49.220;8.654;2022-10-31T11:14:15;18.20;99.90
5683;DHT22;2864;49.220;8.654;2022-10-31T11:16:44;18.40;99.90
5683;DHT22;2864;49.220;8.654;2022-10-31T11:19:23;19.00;99.90
5683;DHT22;2864;49.220;8.654;2022-10-31T11:21:50;18.40;99.90
5683;DHT22;2864;49.220;8.654;2022-10-31T11:24:18;18.40;99.90
5683;DHT22;2864;49.220;8.654;2022-10-31T11:26:46;18.50;99.90
5683;DHT22;2864;49.220;8.654;2022-10-31T11:29:25;18.50;99.90
5683;DHT22;2864;49.220;8.654;2022-10-31T11:31:56;18.50;99.90
5683;DHT22;2864;49.220;8.654;2022-10-31T11:34:34;18.40;99.90
5683;DHT22;2864;49.220;8.654;2022-10-31T11:39:41;18.70;99.90
5683;DHT22;2864;49.220;8.654;2022-10-31T11:42:08;18.70;99.90
5683;DHT22;2864;49.220;8.654;2022-10-31T11:44:33;18.70;99.90
5683;DHT22;2864;49.220;8.654;2022-10-31T11:47:01;18.70;99.90
5683;DHT22;2864;49.220;8.654;2022-10-31T11:49:40;19.10;99.90
5683;DHT22;2864;49.220;8.654;2022-10-31T11:52:16;18.70;99.90
5683;DHT22;2864;49.220;8.654;2022-10-31T11:54:54;19.00;99.90
5683;DHT22;2864;49.220;8.654;2022-10-31T11:57:26;19.00;99.90
5683;DHT22;2864;49.220;8.654;2022-10-31T11:59:55;19.00;99.90
5683;DHT22;2864;49.220;8.654;2022-10-31T12:02:22;19.10;99.90
5683;DHT22;2864;49.220;8.654;2022-10-31T12:05:08;19.10;99.90
5683;DHT22;2864;49.220;8.654;2022-10-31T12:07:36;19.10;99.90
5683;DHT22;2864;49.220;8.654;2022-10-31T12:10:09;19.10;99.90
5683;DHT22;2864;49.220;8.654;2022-10-31T12:12:45;19.00;99.90
5683;DHT22;2864;49.220;8.654;2022-10-31T12:26:11;19.20;99.90
5683;DHT22;2864;49.220;8.654;2022-10-31T12:45:57;18.70;99.90
5683;DHT22;2864;49.220;8.654;2022-10-31T12:53:55;19.10;99.90
5683;DHT22;2864;49.220;8.654;2022-10-31T12:56:36;19.20;99.90
5683;DHT22;2864;49.220;8.654;2022-10-31T12:59:29;19.50;99.90
5683;DHT22;2864;49.220;8.654;2022-10-31T13:07:20;19.30;99.90
5683;DHT22;2864;49.220;8.654;2022-10-31T13:10:19;19.10;99.90
5683;DHT22;2864;49.220;8.654;2022-10-31T13:12:49;19.00;99.90
5683;DHT22;2864;49.220;8.654;2022-10-31T13:15:20;18.80;99.90
5683;DHT22;2864;49.220;8.654;2022-10-31T13:17:50;18.70;99.90
5683;DHT22;2864;49.220;8.654;2022-10-31T13:22:52;18.60;99.90
5683;DHT22;2864;49.220;8.654;2022-10-31T13:25:24;18.60;99.90
5683;DHT22;2864;49.220;8.654;2022-10-31T13:28:03;19.00;99.90
5683;DHT22;2864;49.220;8.654;2022-10-31T13:30:38;19.90;99.90
5683;DHT22;2864;49.220;8.654;2022-10-31T13:33:15;20.30;99.90
5683;DHT22;2864;49.220;8.654;2022-10-31T13:38:52;21.30;99.90
5683;DHT22;2864;49.220;8.654;2022-10-31T13:44:14;23.50;99.90
5683;DHT22;2864;49.220;8.654;2022-10-31T13:46:44;25.00;99.40
5683;DHT22;2864;49.220;8.654;2022-10-31T14:07:31;33.30;68.50
5683;DHT22;2864;49.220;8.654;2022-10-31T14:12:39;31.50;69.40
5683;DHT22;2864;49.220;8.654;2022-10-31T14:15:21;30.10;71.30
5683;DHT22;2864;49.220;8.654;2022-10-31T14:17:58;31.90;68.80
5683;DHT22;2864;49.220;8.654;2022-10-31T14:22:57;31.10;68.70
5683;DHT22;2864;49.220;8.654;2022-10-31T14:25:35;29.40;70.90
5683;DHT22;2864;49.220;8.654;2022-10-31T14:28:41;27.60;73.40
5683;DHT22;2864;49.220;8.654;2022-10-31T14:31:30;25.30;78.00
5683;DHT22;2864;49.220;8.654;2022-10-31T14:42:44;20.10;94.30
5683;DHT22;2864;49.220;8.654;2022-10-31T14:45:44;19.60;97.50
5683;DHT22;2864;49.220;8.654;2022-10-31T14:51:22;19.00;99.90
5683;DHT22;2864;49.220;8.654;2022-10-31T14:53:48;18.60;99.90
5683;DHT22;2864;49.220;8.654;2022-10-31T14:56:21;18.60;99.90
5683;DHT22;2864;49.220;8.654;2022-10-31T14:58:49;18.70;99.90
5683;DHT22;2864;49.220;8.654;2022-10-31T15:01:29;18.40;99.90
5683;DHT22;2864;49.220;8.654;2022-10-31T15:04:00;18.20;99.90
5683;DHT22;2864;49.220;8.654;2022-10-31T15:06:35;18.20;99.90
5683;DHT22;2864;49.220;8.654;2022-10-31T15:09:03;18.10;99.90
5683;DHT22;2864;49.220;8.654;2022-10-31T15:11:37;18.00;99.90
5683;DHT22;2864;49.220;8.654;2022-10-31T15:14:24;18.10;99.90
5683;DHT22;2864;49.220;8.654;2022-10-31T15:16:51;17.90;99.90
5683;DHT22;2864;49.220;8.654;2022-10-31T15:19:25;17.80;99.90
5683;DHT22;2864;49.220;8.654;2022-10-31T15:24:57;17.60;99.90
5683;DHT22;2864;49.220;8.654;2022-10-31T15:27:23;17.60;99.90
5683;DHT22;2864;49.220;8.654;2022-10-31T15:29:54;17.30;99.90
5683;DHT22;2864;49.220;8.654;2022-10-31T15:32:26;17.20;99.90
5683;DHT22;2864;49.220;8.654;2022-10-31T15:34:52;17.00;99.90
5683;DHT22;2864;49.220;8.654;2022-10-31T15:37:20;16.90;99.90
5683;DHT22;2864;49.220;8.654;2022-10-31T15:39:47;18.20;99.90
5683;DHT22;2864;49.220;8.654;2022-10-31T15:42:28;16.70;99.90
5683;DHT22;2864;49.220;8.654;2022-10-31T15:45:15;16.60;99.90
5683;DHT22;2864;49.220;8.654;2022-10-31T15:47:55;16.50;99.90
5683;DHT22;2864;49.220;8.654;2022-10-31T15:50:29;16.40;99.90
5683;DHT22;2864;49.220;8.654;2022-10-31T15:52:56;16.30;99.90
5683;DHT22;2864;49.220;8.654;2022-10-31T15:55:24;16.20;99.90
5683;DHT22;2864;49.220;8.654;2022-10-31T15:57:59;16.20;99.90
5683;DHT22;2864;49.220;8.654;2022-10-31T16:00:27;16.00;99.90
5683;DHT22;2864;49.220;8.654;2022-10-31T16:03:24;16.00;99.90
5683;DHT22;2864;49.220;8.654;2022-10-31T16:05:53;16.00;99.90
5683;DHT22;2864;49.220;8.654;2022-10-31T16:17:02;15.50;99.90
5683;DHT22;2864;49.220;8.654;2022-10-31T16:19:35;15.40;99.90
5683;DHT22;2864;49.220;8.654;2022-10-31T16:22:05;15.30;99.90
5683;DHT22;2864;49.220;8.654;2022-10-31T16:24:32;17.30;99.90
5683;DHT22;2864;49.220;8.654;2022-10-31T16:27:04;15.60;99.90
5683;DHT22;2864;49.220;8.654;2022-10-31T16:29:37;18.30;99.90
5683;DHT22;2864;49.220;8.654;2022-10-31T16:32:04;15.10;99.90
5683;DHT22;2864;49.220;8.654;2022-10-31T16:34:30;15.10;99.90
5683;DHT22;2864;49.220;8.654;2022-10-31T16:36:55;15.20;99.90
5683;DHT22;2864;49.220;8.654;2022-10-31T16:39:21;15.20;99.90
5683;DHT22;2864;49.220;8.654;2022-10-31T16:41:50;15.20;99.90
5683;DHT22;2864;49.220;8.654;2022-10-31T16:44:22;15.20;99.90
5683;DHT22;2864;49.220;8.654;2022-10-31T16:46:51;15.20;99.90
5683;DHT22;2864;49.220;8.654;2022-10-31T16:49:32;17.30;99.90
5683;DHT22;2864;49.220;8.654;2022-10-31T16:51:57;15.30;99.90
5683;DHT22;2864;49.220;8.654;2022-10-31T16:54:23;15.20;99.90
5683;DHT22;2864;49.220;8.654;2022-10-31T16:56:48;15.20;99.90
5683;DHT22;2864;49.220;8.654;2022-10-31T16:59:14;18.50;99.90
5683;DHT22;2864;49.220;8.654;2022-10-31T17:01:40;15.10;99.90
5683;DHT22;2864;49.220;8.654;2022-10-31T17:04:12;17.90;99.90
5683;DHT22;2864;49.220;8.654;2022-10-31T17:06:38;17.60;99.90
5683;DHT22;2864;49.220;8.654;2022-10-31T17:09:04;14.90;99.90
5683;DHT22;2864;49.220;8.654;2022-10-31T17:11:30;14.80;99.90
5683;DHT22;2864;49.220;8.654;2022-10-31T17:13:55;14.70;99.90
5683;DHT22;2864;49.220;8.654;2022-10-31T17:16:21;14.70;99.90
5683;DHT22;2864;49.220;8.654;2022-10-31T17:18:47;16.50;99.90
5683;DHT22;2864;49.220;8.654;2022-10-31T17:21:21;15.50;99.90
5683;DHT22;2864;49.220;8.654;2022-10-31T17:23:52;14.60;99.90
5683;DHT22;2864;49.220;8.654;2022-10-31T17:33:13;14.20;99.90
5683;DHT22;2864;49.220;8.654;2022-10-31T17:36:17;14.10;99.90
5683;DHT22;2864;49.220;8.654;2022-10-31T17:38:42;13.20;99.90
5683;DHT22;2864;49.220;8.654;2022-10-31T17:41:08;13.90;99.90
5683;DHT22;2864;49.220;8.654;2022-10-31T17:43:33;13.90;99.90
5683;DHT22;2864;49.220;8.654;2022-10-31T17:45:59;13.80;99.90
5683;DHT22;2864;49.220;8.654;2022-10-31T17:48:26;13.90;99.90
5683;DHT22;2864;49.220;8.654;2022-10-31T17:50:52;13.70;99.90
5683;DHT22;2864;49.220;8.654;2022-10-31T17:53:17;13.50;99.90
5683;DHT22;2864;49.220;8.654;2022-10-31T17:55:43;13.50;99.90
5683;DHT22;2864;49.220;8.654;2022-10-31T17:58:09;13.50;99.90
5683;DHT22;2864;49.220;8.654;2022-10-31T18:00:38;13.60;99.90
5683;DHT22;2864;49.220;8.654;2022-10-31T18:03:03;14.40;99.90
5683;DHT22;2864;49.220;8.654;2022-10-31T18:05:29;13.70;99.90
5683;DHT22;2864;49.220;8.654;2022-10-31T18:07:55;13.60;99.90
5683;DHT22;2864;49.220;8.654;2022-10-31T18:10:20;15.10;99.90
5683;DHT22;2864;49.220;8.654;2022-10-31T18:12:46;13.60;99.90
5683;DHT22;2864;49.220;8.654;2022-10-31T18:15:14;13.90;99.90
5683;DHT22;2864;49.220;8.654;2022-10-31T18:17:39;13.60;99.90
5683;DHT22;2864;49.220;8.654;2022-10-31T18:20:05;16.20;99.90
5683;DHT22;2864;49.220;8.654;2022-10-31T18:22:31;13.60;99.90
5683;DHT22;2864;49.220;8.654;2022-10-31T18:24:56;13.70;99.90
5683;DHT22;2864;49.220;8.654;2022-10-31T18:27:22;16.90;99.90
5683;DHT22;2864;49.220;8.654;2022-10-31T18:29:47;14.70;99.90
5683;DHT22;2864;49.220;8.654;2022-10-31T18:32:13;14.20;99.90
5683;DHT22;2864;49.220;8.654;2022-10-31T18:34:39;14.10;99.90
5683;DHT22;2864;49.220;8.654;2022-10-31T18:37:04;15.70;99.90
5683;DHT22;2864;49.220;8.654;2022-10-31T18:39:30;13.60;99.90
5683;DHT22;2864;49.220;8.654;2022-10-31T18:41:57;13.60;99.90
5683;DHT22;2864;49.220;8.654;2022-10-31T18:48:34;13.50;99.90
5683;DHT22;2864;49.220;8.654;2022-10-31T18:51:05;13.20;99.90
5683;DHT22;2864;49.220;8.654;2022-10-31T18:53:31;13.30;99.90
5683;DHT22;2864;49.220;8.654;2022-10-31T18:55:57;14.70;99.90
5683;DHT22;2864;49.220;8.654;2022-10-31T18:58:26;13.10;99.90
5683;DHT22;2864;49.220;8.654;2022-10-31T19:00:52;13.10;99.90
5683;DHT22;2864;49.220;8.654;2022-10-31T19:03:18;13.10;99.90
5683;DHT22;2864;49.220;8.654;2022-10-31T19:05:47;13.10;99.90
5683;DHT22;2864;49.220;8.654;2022-10-31T19:08:13;13.00;99.90
5683;DHT22;2864;49.220;8.654;2022-10-31T19:10:41;14.00;99.90
5683;DHT22;2864;49.220;8.654;2022-10-31T19:13:08;13.00;99.90
5683;DHT22;2864;49.220;8.654;2022-10-31T19:15:34;13.00;99.90
5683;DHT22;2864;49.220;8.654;2022-10-31T19:18:00;13.10;99.90
5683;DHT22;2864;49.220;8.654;2022-10-31T19:20:26;13.50;99.90
5683;DHT22;2864;49.220;8.654;2022-10-31T19:22:51;12.90;99.90
5683;DHT22;2864;49.220;8.654;2022-10-31T19:25:17;13.00;99.90
5683;DHT22;2864;49.220;8.654;2022-10-31T19:27:43;13.20;99.90
5683;DHT22;2864;49.220;8.654;2022-10-31T19:30:10;13.00;99.90
5683;DHT22;2864;49.220;8.654;2022-10-31T19:32:36;13.00;99.90
5683;DHT22;2864;49.220;8.654;2022-10-31T19:35:02;12.90;99.90
5683;DHT22;2864;49.220;8.654;2022-10-31T19:37:30;12.80;99.90
5683;DHT22;2864;49.220;8.654;2022-10-31T19:39:56;12.80;99.90
5683;DHT22;2864;49.220;8.654;2022-10-31T19:42:21;12.70;99.90
5683;DHT22;2864;49.220;8.654;2022-10-31T19:44:48;12.70;99.90
5683;DHT22;2864;49.220;8.654;2022-10-31T19:47:14;12.70;99.90
5683;DHT22;2864;49.220;8.654;2022-10-31T19:49:39;14.30;99.90
5683;DHT22;2864;49.220;8.654;2022-10-31T19:52:05;12.60;99.90
5683;DHT22;2864;49.220;8.654;2022-10-31T19:54:30;12.60;99.90
5683;DHT22;2864;49.220;8.654;2022-10-31T19:56:56;12.50;99.90
5683;DHT22;2864;49.220;8.654;2022-10-31T19:59:22;12.60;99.90
5683;DHT22;2864;49.220;8.654;2022-10-31T20:01:47;12.60;99.90
5683;DHT22;2864;49.220;8.654;2022-10-31T20:04:13;12.50;99.90
5683;DHT22;2864;49.220;8.654;2022-10-31T20:06:39;12.50;99.90
5683;DHT22;2864;49.220;8.654;2022-10-31T20:09:08;12.30;99.90
5683;DHT22;2864;49.220;8.654;2022-10-31T20:11:36;12.20;99.90
5683;DHT22;2864;49.220;8.654;2022-10-31T20:14:02;14.50;99.90
5683;DHT22;2864;49.220;8.654;2022-10-31T20:16:28;14.90;99.90
5683;DHT22;2864;49.220;8.654;2022-10-31T20:18:55;12.10;99.90
5683;DHT22;2864;49.220;8.654;2022-10-31T20:21:22;12.00;99.90
5683;DHT22;2864;49.220;8.654;2022-10-31T20:23:53;13.90;99.90
5683;DHT22;2864;49.220;8.654;2022-10-31T20:26:19;12.00;99.90
5683;DHT22;2864;49.220;8.654;2022-10-31T20:28:44;12.00;99.90